createdAt,value
2018-08-19T00:03:14.976Z,2.80
2018-08-19T00:08:18.630Z,2.90
2018-08-19T00:13:22.288Z,2.67
2018-08-19T00:18:25.969Z,2.27
2018-08-19T00:23:35.263Z,2.67
2018-08-19T00:28:38.996Z,2.87
2018-08-19T00:33:42.577Z,2.77
2018-08-19T00:38:46.159Z,2.83
2018-08-19T00:43:49.837Z,2.90
2018-08-19T00:48:53.762Z,3.17
2018-08-19T00:53:57.677Z,3.33
2018-08-19T00:59:01.285Z,3.60
2018-08-19T01:04:07.378Z,3.83
2018-08-19T01:09:11.192Z,3.40
2018-08-19T01:14:15.408Z,3.70
2018-08-19T01:19:19.306Z,3.10
2018-08-19T01:24:23.044Z,3.03
2018-08-19T01:29:34.715Z,2.77
2018-08-19T01:34:38.670Z,3.20
2018-08-19T01:39:42.253Z,3.37
2018-08-19T01:44:45.907Z,3.17
2018-08-19T01:49:49.523Z,3.13
2018-08-19T01:54:53.106Z,2.83
2018-08-19T01:59:56.704Z,3.20
2018-08-19T02:05:00.301Z,2.87
2018-08-19T02:10:07.346Z,3.10
2018-08-19T02:15:11.290Z,2.93
2018-08-19T02:20:14.897Z,2.70
2018-08-19T02:25:18.574Z,3.27
2018-08-19T02:30:22.178Z,3.33
2018-08-19T02:35:25.897Z,3.17
2018-08-19T02:40:30.339Z,2.97
2018-08-19T02:45:33.934Z,2.93
2018-08-19T02:50:37.601Z,2.63
2018-08-19T02:55:41.158Z,2.83
2018-08-19T03:00:44.665Z,2.53
2018-08-19T03:06:05.977Z,2.53
2018-08-19T03:11:09.794Z,2.37
2018-08-19T03:16:13.480Z,3.10
2018-08-19T03:21:17.142Z,2.97
2018-08-19T03:26:20.831Z,2.77
2018-08-19T03:31:24.420Z,2.90
2018-08-19T03:36:28.034Z,3.03
2018-08-19T03:41:31.575Z,2.80
2018-08-19T03:46:35.148Z,2.90
2018-08-19T03:51:38.785Z,2.83
2018-08-19T03:56:42.351Z,2.77
2018-08-19T04:01:46.469Z,2.93
2018-08-19T04:06:49.977Z,2.60
2018-08-19T04:12:06.731Z,2.63
2018-08-19T04:17:12.249Z,2.90
2018-08-19T04:22:15.877Z,2.97
2018-08-19T04:27:19.441Z,2.90
2018-08-19T04:32:28.330Z,2.63
2018-08-19T04:37:31.951Z,2.43
2018-08-19T04:42:35.588Z,2.90
2018-08-19T04:47:39.182Z,2.70
2018-08-19T04:52:42.779Z,2.63
2018-08-19T04:57:46.571Z,2.37
2018-08-19T05:02:50.096Z,2.73
2018-08-19T05:07:53.821Z,3.07
2018-08-19T05:12:57.371Z,3.00
2018-08-19T05:18:01.059Z,2.27
2018-08-19T05:23:04.797Z,2.90
2018-08-19T05:28:08.416Z,2.63
2018-08-19T05:33:12.089Z,2.87
2018-08-19T05:38:15.754Z,2.80
2018-08-19T05:43:19.342Z,3.03
2018-08-19T05:48:23.302Z,2.43
2018-08-19T05:53:26.870Z,2.60
2018-08-19T05:58:30.599Z,2.33
2018-08-19T06:03:34.224Z,2.73
2018-08-19T06:08:37.942Z,2.73
2018-08-19T06:13:41.562Z,2.93
2018-08-19T06:18:45.146Z,2.77
2018-08-19T06:23:49.282Z,2.70
2018-08-19T06:28:53.079Z,2.97
2018-08-19T06:33:56.668Z,2.93
2018-08-19T06:39:00.374Z,2.50
2018-08-19T06:44:03.987Z,3.47
2018-08-19T06:49:12.674Z,3.77
2018-08-19T06:54:16.337Z,2.90
2018-08-19T06:59:19.923Z,2.87
2018-08-19T07:04:23.488Z,3.50
2018-08-19T07:09:27.313Z,3.13
2018-08-19T07:14:31.262Z,2.80
2018-08-19T07:19:37.045Z,3.57
2018-08-19T07:24:40.669Z,2.53
2018-08-19T07:29:44.320Z,2.87
2018-08-19T07:34:47.927Z,2.73
2018-08-19T07:39:53.880Z,2.77
2018-08-19T07:44:57.647Z,2.73
2018-08-19T07:50:01.314Z,2.67
2018-08-19T07:55:05.664Z,2.47
2018-08-19T08:00:10.228Z,2.87
2018-08-19T08:05:13.856Z,3.40
2018-08-19T08:10:17.999Z,2.90
2018-08-19T08:15:21.883Z,3.50
2018-08-19T08:20:25.745Z,3.40
2018-08-19T08:25:29.561Z,3.27
2018-08-19T08:30:33.348Z,2.73
2018-08-19T08:35:41.332Z,2.73
2018-08-19T08:40:45.190Z,2.97
2018-08-19T08:45:48.751Z,2.83
2018-08-19T08:50:52.380Z,3.40
2018-08-19T08:55:55.970Z,3.13
2018-08-19T09:01:00.015Z,3.47
2018-08-19T09:06:03.752Z,3.73
2018-08-19T09:11:07.485Z,3.20
2018-08-19T09:16:11.176Z,3.33
2018-08-19T09:21:15.304Z,3.70
2018-08-19T09:26:18.997Z,3.83
2018-08-19T09:31:22.579Z,3.40
2018-08-19T09:36:26.248Z,4.10
2018-08-19T09:41:29.838Z,3.37
2018-08-19T09:46:33.541Z,3.77
2018-08-19T09:51:37.102Z,3.90
2018-08-19T09:56:40.834Z,4.40
2018-08-19T10:01:47.415Z,3.83
2018-08-19T10:07:01.452Z,4.47
2018-08-19T10:17:42.882Z,3.73
2018-08-19T10:22:46.501Z,4.17
2018-08-19T13:09:08.311Z,4.60
2018-08-19T13:14:12.118Z,4.17
2018-08-19T13:19:17.337Z,4.77
2018-08-19T13:24:26.701Z,5.07
2018-08-19T13:29:38.411Z,5.70
2018-08-19T13:34:42.560Z,5.07
2018-08-19T13:39:47.631Z,5.30
2018-08-19T13:44:53.206Z,5.47
2018-08-19T13:49:57.240Z,5.80
2018-08-19T13:55:03.206Z,5.33
2018-08-19T14:00:16.134Z,4.90
2018-08-19T14:05:20.340Z,5.10
2018-08-19T14:10:28.073Z,5.63
2018-08-19T14:15:32.936Z,5.40
2018-08-19T14:20:40.056Z,5.23
2018-08-19T14:25:44.974Z,5.50
2018-08-19T14:30:49.054Z,5.30
2018-08-19T14:35:55.117Z,5.23
2018-08-19T14:40:59.615Z,5.43
2018-08-19T14:46:04.444Z,4.33
2018-08-19T14:51:09.510Z,4.97
2018-08-19T14:56:16.183Z,4.87
2018-08-19T15:01:20.611Z,5.53
2018-08-19T15:06:25.171Z,4.83
2018-08-19T15:11:42.777Z,4.73
2018-08-19T15:16:53.398Z,5.30
2018-08-19T15:55:18.224Z,4.93
2018-08-19T16:00:21.889Z,5.00
2018-08-19T16:05:25.714Z,4.57
2018-08-19T16:10:39.375Z,4.87
2018-08-19T16:15:44.316Z,4.57
2018-08-19T16:20:52.491Z,4.60
2018-08-19T16:25:56.216Z,4.10
2018-08-19T16:31:00.094Z,5.00
2018-08-19T16:36:26.125Z,5.03
2018-08-19T16:41:30.033Z,4.67
2018-08-19T16:46:34.067Z,4.13
2018-08-19T16:51:38.728Z,4.40
2018-08-19T22:21:21.280Z,3.73
2018-08-19T22:26:28.774Z,4.53
2018-08-19T22:31:36.209Z,4.47
2018-08-19T22:36:44.184Z,4.50
2018-08-19T22:41:53.147Z,4.50
2018-08-19T22:46:57.120Z,4.17
2018-08-19T22:52:33.950Z,4.17
2018-08-19T22:57:37.861Z,4.30
2018-08-19T23:02:48.847Z,4.77
2018-08-19T23:07:52.743Z,4.30
2018-08-19T23:12:57.306Z,4.33
2018-08-19T23:18:01.543Z,4.80
2018-08-19T23:23:06.414Z,5.03
2018-08-19T23:28:11.061Z,4.63
2018-08-19T23:33:17.348Z,5.03
2018-08-19T23:38:21.099Z,5.10
2018-08-19T23:49:46.326Z,5.70
2018-08-19T23:54:51.928Z,5.77
2018-08-19T23:59:55.603Z,5.77
